createdAt,value
2019-05-01T00:01:43.471Z,94454.34
2019-05-01T00:04:13.671Z,94449.75
2019-05-01T00:06:49.784Z,94453.92
2019-05-01T00:09:19.013Z,94458.52
2019-05-01T00:11:47.684Z,94452.59
2019-05-01T00:14:16.306Z,94451.34
2019-05-01T00:16:44.930Z,94441.23
2019-05-01T00:19:13.660Z,94452.66
2019-05-01T00:21:42.282Z,94436.06
2019-05-01T00:24:10.844Z,94438.66
2019-05-01T00:26:39.464Z,94420.77
2019-05-01T00:29:08.204Z,94429.94
2019-05-01T00:31:36.744Z,94431.44
2019-05-01T00:34:05.478Z,94432.06
2019-05-01T00:36:34.109Z,94440.69
2019-05-01T00:39:02.743Z,94436.89
2019-05-01T00:41:31.371Z,94437.87
2019-05-01T00:44:00.009Z,94423.38
2019-05-01T00:46:28.674Z,94418.78
2019-05-01T00:48:57.323Z,94429.52
2019-05-01T00:51:25.948Z,94430.24
2019-05-01T00:53:54.651Z,94428.66
2019-05-01T00:56:25.003Z,94434.23
2019-05-01T00:59:04.520Z,94436.39
2019-05-01T01:01:37.516Z,94433.80
2019-05-01T01:04:06.337Z,94429.13
2019-05-01T01:06:34.979Z,94425.96
2019-05-01T01:09:05.097Z,94427.43
2019-05-01T01:11:33.602Z,94430.72
2019-05-01T01:14:02.233Z,94438.89
2019-05-01T01:16:30.890Z,94433.52
2019-05-01T01:18:59.521Z,94435.27
2019-05-01T01:21:28.177Z,94428.15
2019-05-01T01:23:57.474Z,94435.00
2019-05-01T01:26:26.133Z,94427.16
2019-05-01T01:28:54.772Z,94437.39
2019-05-01T01:31:23.408Z,94438.69
2019-05-01T01:33:52.039Z,94431.06
2019-05-01T01:36:20.668Z,94434.27
2019-05-01T01:38:49.308Z,94438.16
2019-05-01T01:41:18.811Z,94425.09
2019-05-01T01:43:49.325Z,94430.52
2019-05-01T01:46:28.747Z,94420.14
2019-05-01T01:48:57.720Z,94413.06
2019-05-01T01:51:26.751Z,94403.78
2019-05-01T01:53:55.479Z,94407.22
2019-05-01T01:56:24.116Z,94393.31
2019-05-01T01:58:53.948Z,94394.60
2019-05-01T02:01:42.529Z,94385.20
2019-05-01T02:04:18.939Z,94384.23
2019-05-01T02:06:49.430Z,94379.78
2019-05-01T02:09:18.052Z,94376.93
2019-05-01T02:11:48.791Z,94376.72
2019-05-01T02:14:17.541Z,94377.45
2019-05-01T02:16:46.167Z,94377.45
2019-05-01T02:19:14.794Z,94377.09
2019-05-01T02:21:43.408Z,94379.47
2019-05-01T02:24:12.038Z,94384.63
2019-05-01T02:26:45.023Z,94380.69
2019-05-01T02:29:33.955Z,94380.96
2019-05-01T02:32:03.671Z,94390.41
2019-05-01T02:34:33.906Z,94378.95
2019-05-01T02:37:04.093Z,94375.20
2019-05-01T02:39:34.122Z,94371.05
2019-05-01T02:42:04.186Z,94380.03
2019-05-01T02:44:41.563Z,94381.27
2019-05-01T02:47:15.955Z,94387.66
2019-05-01T02:49:59.624Z,94346.09
2019-05-01T02:52:32.602Z,94378.70
2019-05-01T02:57:41.132Z,94392.05
2019-05-01T03:00:10.636Z,94388.97
2019-05-01T03:02:40.664Z,94395.86
2019-05-01T03:05:09.739Z,94402.24
2019-05-01T03:07:39.570Z,94397.92
2019-05-01T03:10:09.819Z,94398.87
2019-05-01T03:12:42.184Z,94396.24
2019-05-01T03:15:14.818Z,94401.20
2019-05-01T03:17:55.623Z,94401.79
2019-05-01T03:20:32.026Z,94408.13
2019-05-01T03:23:21.518Z,94404.24
2019-05-01T03:25:50.776Z,94399.41
2019-05-01T03:28:19.758Z,94401.50
2019-05-01T03:30:48.971Z,94411.50
2019-05-01T03:33:19.644Z,94412.55
2019-05-01T03:35:48.707Z,94412.83
2019-05-01T03:38:18.706Z,94410.83
2019-05-01T03:40:51.233Z,94412.25
2019-05-01T03:43:20.605Z,94420.55
2019-05-01T03:45:51.601Z,94415.72
2019-05-01T03:48:20.412Z,94421.05
2019-05-01T03:50:49.450Z,94412.72
2019-05-01T03:53:18.488Z,94418.30
2019-05-01T03:55:47.140Z,94419.72
2019-05-01T03:58:15.922Z,94412.73
2019-05-01T04:00:46.300Z,94423.19
2019-05-01T04:03:22.947Z,94425.83
2019-05-01T04:05:53.619Z,94423.46
2019-05-01T04:08:24.559Z,94426.23
2019-05-01T04:10:54.773Z,94417.03
2019-05-01T04:13:23.704Z,94420.27
2019-05-01T04:15:56.585Z,94423.97
2019-05-01T04:18:26.913Z,94422.06
2019-05-01T04:20:56.096Z,94422.03
2019-05-01T04:23:25.290Z,94416.03
2019-05-01T04:25:54.829Z,94418.91
2019-05-01T04:28:25.199Z,94408.95
2019-05-01T04:31:13.800Z,94402.94
2019-05-01T04:33:47.175Z,94402.94
2019-05-01T04:36:29.732Z,94400.30
2019-05-01T04:38:58.905Z,94404.63
2019-05-01T04:41:30.015Z,94408.51
2019-05-01T04:44:00.096Z,94406.80
2019-05-01T04:46:28.830Z,94407.16
2019-05-01T04:48:57.504Z,94402.70
2019-05-01T04:51:26.757Z,94408.48
2019-05-01T04:53:56.006Z,94406.23
2019-05-01T04:56:27.109Z,94411.45
2019-05-01T04:58:56.341Z,94411.23
2019-05-01T05:01:28.411Z,94405.05
2019-05-01T05:03:57.728Z,94407.10
2019-05-01T05:06:27.790Z,94403.20
2019-05-01T05:08:56.944Z,94408.05
2019-05-01T05:11:28.744Z,94405.29
2019-05-01T05:14:13.298Z,94402.17
2019-05-01T05:16:46.332Z,94407.52
2019-05-01T05:19:15.066Z,94390.69
2019-05-01T05:21:45.381Z,94398.78
2019-05-01T05:24:14.618Z,94401.61
2019-05-01T05:26:45.327Z,94402.04
2019-05-01T05:29:17.257Z,94399.80
2019-05-01T05:31:46.105Z,94396.72
2019-05-01T05:34:18.227Z,94397.88
2019-05-01T05:36:48.808Z,94401.79
2019-05-01T05:39:23.231Z,94407.95
2019-05-01T05:41:53.213Z,94405.38
2019-05-01T05:44:22.761Z,94401.12
2019-05-01T05:46:52.202Z,94414.08
2019-05-01T05:52:04.777Z,94409.77
2019-05-01T05:54:53.784Z,94408.45
2019-05-01T05:57:29.807Z,94406.61
2019-05-01T06:00:13.526Z,94410.55
2019-05-01T06:02:46.797Z,94413.36
2019-05-01T06:05:22.436Z,94416.44
2019-05-01T06:08:11.266Z,94413.56
2019-05-01T06:10:43.004Z,94417.74
2019-05-01T06:13:18.011Z,94420.94
2019-05-01T06:15:49.003Z,94413.84
2019-05-01T06:18:24.471Z,94406.19
2019-05-01T06:20:57.237Z,94409.07
2019-05-01T06:23:34.012Z,94414.02
2019-05-01T06:26:22.720Z,94397.99
2019-05-01T06:28:55.996Z,94403.12
2019-05-01T06:31:24.654Z,94397.62
2019-05-01T06:33:54.973Z,94402.30
2019-05-01T06:36:24.269Z,94396.77
2019-05-01T06:38:53.581Z,94400.66
2019-05-01T06:41:22.520Z,94397.83
2019-05-01T06:43:57.105Z,94402.86
2019-05-01T06:46:35.389Z,94394.59
2019-05-01T06:49:11.047Z,94398.92
2019-05-01T06:51:55.174Z,94385.16
2019-05-01T06:54:26.920Z,94397.56
2019-05-01T06:56:56.941Z,94401.66
2019-05-01T06:59:31.312Z,94401.94
2019-05-01T07:02:00.346Z,94403.80
2019-05-01T07:04:32.227Z,94413.64
2019-05-01T07:07:06.762Z,94415.06
2019-05-01T07:09:34.017Z,94413.92
2019-05-01T07:12:06.064Z,94411.36
2019-05-01T07:14:35.221Z,94411.69
2019-05-01T07:17:03.964Z,94414.57
2019-05-01T07:19:53.025Z,94424.14
2019-05-01T07:22:21.931Z,94415.16
2019-05-01T07:24:50.985Z,94404.40
2019-05-01T07:27:23.724Z,94413.85
2019-05-01T07:30:04.233Z,94420.58
2019-05-01T07:32:36.380Z,94424.95
2019-05-01T07:35:03.946Z,94424.06
2019-05-01T07:37:32.692Z,94425.25
2019-05-01T07:40:02.641Z,94424.91
2019-05-01T07:42:35.693Z,94423.47
2019-05-01T07:45:13.158Z,94399.69
2019-05-01T07:47:43.445Z,94417.84
2019-05-01T07:51:10.455Z,94413.69
2019-05-01T07:53:40.316Z,94417.66
2019-05-01T07:56:10.118Z,94421.02
2019-05-01T07:58:39.740Z,94419.44
2019-05-01T08:01:18.352Z,94415.81
2019-05-01T08:03:44.192Z,94413.50
2019-05-01T08:06:16.079Z,94414.30
2019-05-01T08:08:43.241Z,94410.97
2019-05-01T08:11:12.882Z,94408.05
2019-05-01T08:13:41.491Z,94405.20
2019-05-01T08:16:10.211Z,94404.58
2019-05-01T08:18:40.479Z,94411.38
2019-05-01T08:21:10.736Z,94414.23
2019-05-01T08:23:42.648Z,94414.36
2019-05-01T08:26:10.318Z,94412.72
2019-05-01T08:28:40.685Z,94411.97
2019-05-01T08:31:28.999Z,94417.31
2019-05-01T08:34:09.931Z,94413.98
2019-05-01T08:36:42.704Z,94411.89
2019-05-01T08:39:10.806Z,94423.38
2019-05-01T08:41:39.580Z,94416.16
2019-05-01T08:44:08.832Z,94408.66
2019-05-01T08:46:50.975Z,94406.66
2019-05-01T08:49:23.049Z,94414.21
2019-05-01T08:51:51.779Z,94418.36
2019-05-01T08:54:22.138Z,94410.44
2019-05-01T08:56:53.130Z,94409.06
2019-05-01T08:59:24.011Z,94413.09
2019-05-01T09:02:07.916Z,94400.84
2019-05-01T09:04:25.155Z,94391.92
2019-05-01T09:06:57.296Z,94397.80
2019-05-01T09:09:25.661Z,94400.27
2019-05-01T09:11:54.739Z,94403.47
2019-05-01T09:14:23.516Z,94398.44
2019-05-01T09:16:52.627Z,94395.41
2019-05-01T09:19:21.370Z,94391.12
2019-05-01T09:21:50.153Z,94395.41
2019-05-01T09:24:23.097Z,94396.11
2019-05-01T09:26:52.452Z,94390.91
2019-05-01T09:29:22.762Z,94390.34
2019-05-01T09:31:51.606Z,94382.31
2019-05-01T09:34:21.074Z,94391.95
2019-05-01T09:36:49.987Z,94377.58
2019-05-01T09:39:18.995Z,94382.22
2019-05-01T09:41:48.864Z,94380.92
2019-05-01T09:44:17.551Z,94373.66
2019-05-01T09:46:46.182Z,94379.23
2019-05-01T09:49:18.215Z,94376.53
2019-05-01T09:51:47.536Z,94386.45
2019-05-01T09:54:21.596Z,94385.83
2019-05-01T09:56:51.850Z,94384.30
2019-05-01T09:59:20.490Z,94388.19
2019-05-01T10:01:49.198Z,94384.74
2019-05-01T10:04:17.831Z,94383.58
2019-05-01T10:06:52.401Z,94383.87
2019-05-01T10:09:18.395Z,94374.66
2019-05-01T10:11:47.030Z,94373.55
2019-05-01T10:14:15.669Z,94369.84
2019-05-01T10:16:44.343Z,94374.77
2019-05-01T10:19:12.975Z,94360.28
2019-05-01T10:21:41.615Z,94368.31
2019-05-01T10:24:10.168Z,94367.50
2019-05-01T10:26:40.452Z,94370.22
2019-05-01T10:29:10.734Z,94371.54
2019-05-01T10:31:50.217Z,94367.40
2019-05-01T10:34:23.272Z,94362.13
2019-05-01T10:36:54.575Z,94350.59
2019-05-01T10:39:22.262Z,94362.24
2019-05-01T10:41:51.005Z,94361.86
2019-05-01T10:44:19.605Z,94361.67
2019-05-01T10:46:48.233Z,94360.72
2019-05-01T10:49:16.879Z,94352.75
2019-05-01T10:51:45.507Z,94348.75
2019-05-01T10:54:14.140Z,94341.16
2019-05-01T10:56:42.777Z,94345.18
2019-05-01T10:59:11.461Z,94352.48
2019-05-01T11:01:50.756Z,94347.75
2019-05-01T11:04:19.422Z,94346.10
2019-05-01T11:06:48.126Z,94344.34
2019-05-01T11:09:16.791Z,94343.14
2019-05-01T11:11:45.481Z,94352.83
2019-05-01T11:14:14.238Z,94353.16
2019-05-01T11:16:42.875Z,94346.36
2019-05-01T11:19:11.499Z,94341.01
2019-05-01T11:21:40.167Z,94338.31
2019-05-01T11:24:08.793Z,94336.30
2019-05-01T11:26:37.424Z,94334.10
2019-05-01T11:29:06.054Z,94344.81
2019-05-01T11:31:52.490Z,94348.34
2019-05-01T11:34:39.255Z,94334.45
2019-05-01T11:37:24.684Z,94330.09
2019-05-01T11:40:07.163Z,94313.33
2019-05-01T11:42:35.800Z,94331.71
2019-05-01T11:45:07.658Z,94338.31
2019-05-01T11:47:36.286Z,94345.47
2019-05-01T11:50:05.841Z,94351.91
2019-05-01T11:52:34.491Z,94345.16
2019-05-01T11:55:03.258Z,94323.98
2019-05-01T11:57:31.892Z,94335.77
2019-05-01T12:00:00.518Z,94336.16
2019-05-01T12:02:29.115Z,94338.69
2019-05-01T12:04:57.685Z,94331.56
2019-05-01T12:07:26.320Z,94321.58
2019-05-01T12:09:54.948Z,94326.10
2019-05-01T12:12:25.230Z,94327.16
2019-05-01T12:14:53.863Z,94323.94
2019-05-01T12:17:30.274Z,94331.80
2019-05-01T12:19:58.924Z,94319.44
2019-05-01T12:22:27.550Z,94318.77
2019-05-01T12:24:56.247Z,94312.63
2019-05-01T12:27:24.885Z,94309.55
2019-05-01T12:29:53.535Z,94308.42
2019-05-01T12:32:22.171Z,94307.27
2019-05-01T12:34:50.805Z,94300.77
2019-05-01T12:37:21.202Z,94303.97
2019-05-01T12:39:49.831Z,94301.55
2019-05-01T12:42:20.111Z,94307.50
2019-05-01T12:44:48.757Z,94299.89
2019-05-01T12:47:22.236Z,94302.72
2019-05-01T12:49:52.550Z,94298.89
2019-05-01T12:52:31.535Z,94293.70
2019-05-01T12:55:18.118Z,94285.66
2019-05-01T12:57:46.703Z,94282.09
2019-05-01T13:00:20.131Z,94291.67
2019-05-01T13:02:48.799Z,94290.11
2019-05-01T13:05:17.435Z,94286.06
2019-05-01T13:07:46.004Z,94280.84
2019-05-01T13:10:14.846Z,94282.10
2019-05-01T13:12:43.479Z,94286.68
2019-05-01T13:15:12.391Z,94290.09
2019-05-01T13:17:41.055Z,94286.75
2019-05-01T13:20:09.819Z,94287.46
2019-05-01T13:22:38.445Z,94291.48
2019-05-01T13:25:07.646Z,94293.74
2019-05-01T13:27:37.938Z,94294.13
2019-05-01T13:30:29.190Z,94287.41
2019-05-01T13:32:59.618Z,94283.97
2019-05-01T13:35:30.583Z,94285.77
2019-05-01T13:37:58.723Z,94282.10
2019-05-01T13:40:27.450Z,94279.91
2019-05-01T13:42:56.167Z,94276.02
2019-05-01T13:45:24.921Z,94277.91
2019-05-01T13:47:54.589Z,94269.38
2019-05-01T13:50:23.939Z,94275.08
2019-05-01T13:52:52.642Z,94271.63
2019-05-01T13:55:21.295Z,94263.61
2019-05-01T13:57:49.916Z,94267.81
2019-05-01T14:00:20.995Z,94268.42
2019-05-01T14:02:49.672Z,94271.55
2019-05-01T14:05:18.362Z,94272.41
2019-05-01T14:07:47.069Z,94269.81
2019-05-01T14:10:15.989Z,94273.52
2019-05-01T14:12:44.622Z,94277.19
2019-05-01T14:15:13.370Z,94283.97
2019-05-01T14:17:42.097Z,94289.43
2019-05-01T14:20:18.287Z,94288.30
2019-05-01T14:22:48.605Z,94281.71
2019-05-01T14:25:17.230Z,94281.39
2019-05-01T14:27:45.889Z,94286.27
2019-05-01T14:30:14.722Z,94290.50
2019-05-01T14:32:43.344Z,94290.86
2019-05-01T14:35:13.203Z,94285.80
2019-05-01T14:37:41.840Z,94289.37
2019-05-01T14:40:11.212Z,94291.59
2019-05-01T14:42:39.964Z,94302.73
2019-05-01T14:45:10.262Z,94292.97
2019-05-01T14:47:38.961Z,94296.95
2019-05-01T14:50:08.484Z,94299.64
2019-05-01T14:52:37.122Z,94296.80
2019-05-01T14:55:08.602Z,94304.54
2019-05-01T14:57:37.209Z,94293.69
2019-05-01T15:00:07.705Z,94296.39
2019-05-01T15:02:36.366Z,94298.49
2019-05-01T15:05:07.553Z,94292.66
2019-05-01T15:07:43.444Z,94295.30
2019-05-01T15:10:06.969Z,94289.96
2019-05-01T15:12:35.654Z,94291.28
2019-05-01T15:15:10.573Z,94291.94
2019-05-01T15:17:40.834Z,94289.38
2019-05-01T15:20:09.744Z,94292.07
2019-05-01T15:22:38.450Z,94295.66
2019-05-01T15:25:07.593Z,94293.41
2019-05-01T15:27:36.236Z,94292.59
2019-05-01T15:30:06.863Z,94298.05
2019-05-01T15:32:35.484Z,94293.28
2019-05-01T15:35:05.051Z,94294.75
2019-05-01T15:37:35.272Z,94295.76
2019-05-01T15:40:07.614Z,94290.36
2019-05-01T15:42:37.891Z,94293.63
2019-05-01T15:45:08.819Z,94297.95
2019-05-01T15:47:38.979Z,94295.80
2019-05-01T15:50:08.898Z,94285.50
2019-05-01T15:52:39.223Z,94285.44
2019-05-01T15:55:11.689Z,94291.30
2019-05-01T15:57:41.408Z,94279.27
2019-05-01T16:00:13.679Z,94286.16
2019-05-01T16:02:43.317Z,94288.88
2019-05-01T16:05:13.816Z,94292.92
2019-05-01T16:07:46.107Z,94287.45
2019-05-01T16:10:18.094Z,94288.53
2019-05-01T16:12:51.512Z,94293.17
2019-05-01T16:15:28.445Z,94292.13
2019-05-01T16:17:57.072Z,94295.29
2019-05-01T16:20:30.011Z,94284.23
2019-05-01T16:22:58.667Z,94290.35
2019-05-01T16:25:27.312Z,94290.55
2019-05-01T16:27:56.961Z,94291.13
2019-05-01T16:30:26.988Z,94290.70
2019-05-01T16:32:56.435Z,94298.70
2019-05-01T16:35:25.084Z,94297.17
2019-05-01T16:37:55.170Z,94298.88
2019-05-01T16:40:41.147Z,94295.60
2019-05-01T16:43:11.336Z,94304.88
2019-05-01T16:45:40.336Z,94308.65
2019-05-01T16:48:10.072Z,94307.13
2019-05-01T16:50:40.311Z,94317.66
2019-05-01T16:53:09.216Z,94327.16
2019-05-01T16:55:38.902Z,94325.39
2019-05-01T16:58:11.597Z,94329.34
2019-05-01T17:00:59.391Z,94334.32
2019-05-01T17:03:46.491Z,94325.15
2019-05-01T17:06:17.833Z,94335.41
2019-05-01T17:08:51.493Z,94340.67
2019-05-01T17:11:23.670Z,94344.63
2019-05-01T17:13:52.490Z,94349.56
2019-05-01T17:16:22.198Z,94358.97
2019-05-01T17:18:52.439Z,94366.29
2019-05-01T17:21:22.141Z,94366.27
2019-05-01T17:23:51.582Z,94371.77
2019-05-01T17:26:20.972Z,94379.80
2019-05-01T17:28:51.038Z,94381.35
2019-05-01T17:31:20.010Z,94383.39
2019-05-01T17:33:50.796Z,94390.16
2019-05-01T17:36:19.557Z,94395.83
2019-05-01T17:38:50.049Z,94398.70
2019-05-01T17:41:22.723Z,94403.40
2019-05-01T17:43:50.920Z,94406.53
2019-05-01T17:46:20.018Z,94402.68
2019-05-01T17:48:50.553Z,94413.06
2019-05-01T17:51:20.036Z,94412.50
2019-05-01T17:53:51.309Z,94420.03
2019-05-01T17:56:27.554Z,94425.92
2019-05-01T17:58:52.689Z,94426.61
2019-05-01T18:01:35.400Z,94432.32
2019-05-01T18:04:15.363Z,94437.73
2019-05-01T18:06:48.216Z,94437.40
2019-05-01T18:09:18.227Z,94437.06
2019-05-01T18:11:52.275Z,94441.09
2019-05-01T18:14:18.407Z,94444.23
2019-05-01T18:16:47.504Z,94443.35
2019-05-01T18:19:16.305Z,94455.59
2019-05-01T18:21:51.864Z,94458.09
2019-05-01T18:24:35.230Z,94452.64
2019-05-01T18:27:21.694Z,94455.69
2019-05-01T18:29:54.935Z,94459.52
2019-05-01T18:32:25.312Z,94464.97
2019-05-01T18:34:54.399Z,94463.28
2019-05-01T18:37:35.096Z,94471.24
2019-05-01T18:40:03.804Z,94474.13
2019-05-01T18:42:32.570Z,94473.05
2019-05-01T18:45:02.453Z,94480.27
2019-05-01T18:47:31.095Z,94475.05
2019-05-01T18:49:59.712Z,94476.36
2019-05-01T18:52:29.363Z,94480.04
2019-05-01T18:54:59.137Z,94476.63
2019-05-01T18:57:28.218Z,94480.63
2019-05-01T18:59:57.034Z,94482.97
2019-05-01T19:02:26.235Z,94483.84
2019-05-01T19:04:55.953Z,94483.88
2019-05-01T19:07:25.576Z,94484.12
2019-05-01T19:09:54.204Z,94488.63
2019-05-01T19:12:23.955Z,94484.52
2019-05-01T19:14:52.964Z,94493.59
2019-05-01T19:17:23.713Z,94492.33
2019-05-01T19:19:53.309Z,94496.80
2019-05-01T19:22:22.547Z,94504.30
2019-05-01T19:24:51.191Z,94511.13
2019-05-01T19:27:24.262Z,94507.41
2019-05-01T19:29:52.575Z,94509.27
2019-05-01T19:32:22.910Z,94514.80
2019-05-01T19:34:52.457Z,94517.33
2019-05-01T19:37:23.992Z,94511.59
2019-05-01T19:39:54.995Z,94511.88
2019-05-01T19:42:25.665Z,94512.90
2019-05-01T19:44:56.137Z,94517.33
2019-05-01T19:47:27.722Z,94520.20
2019-05-01T19:50:06.493Z,94520.44
2019-05-01T19:52:32.449Z,94520.77
2019-05-01T19:55:06.451Z,94522.85
2019-05-01T19:57:33.555Z,94525.38
2019-05-01T20:00:02.639Z,94523.75
2019-05-01T20:02:31.395Z,94520.12
2019-05-01T20:05:00.426Z,94520.39
2019-05-01T20:07:29.848Z,94522.72
2019-05-01T20:09:59.432Z,94517.56
2019-05-01T20:12:29.907Z,94510.69
2019-05-01T20:14:59.492Z,94519.56
2019-05-01T20:17:28.746Z,94523.20
2019-05-01T20:19:58.407Z,94524.45
2019-05-01T20:22:27.383Z,94524.77
2019-05-01T20:24:56.359Z,94532.22
2019-05-01T20:27:27.546Z,94531.44
2019-05-01T20:29:56.401Z,94537.53
2019-05-01T20:32:26.377Z,94525.88
2019-05-01T20:34:55.399Z,94530.12
2019-05-01T20:37:24.033Z,94533.80
2019-05-01T20:39:53.121Z,94524.67
2019-05-01T20:42:22.166Z,94530.31
2019-05-01T20:45:04.011Z,94523.56
2019-05-01T20:47:34.509Z,94522.85
2019-05-01T20:49:52.311Z,94520.16
2019-05-01T20:52:21.197Z,94518.63
2019-05-01T20:54:50.798Z,94515.78
2019-05-01T20:57:36.087Z,94515.42
2019-05-01T21:00:11.335Z,94519.52
2019-05-01T21:02:38.846Z,94519.23
2019-05-01T21:05:22.946Z,94513.38
2019-05-01T21:08:02.034Z,94509.80
2019-05-01T21:10:36.073Z,94508.91
2019-05-01T21:13:05.187Z,94509.70
2019-05-01T21:15:34.307Z,94510.96
2019-05-01T21:18:03.887Z,94507.33
2019-05-01T21:20:33.937Z,94500.49
2019-05-01T21:23:10.373Z,94511.70
2019-05-01T21:25:35.017Z,94508.27
2019-05-01T21:28:04.753Z,94510.35
2019-05-01T21:30:34.352Z,94505.34
2019-05-01T21:33:09.843Z,94508.77
2019-05-01T21:35:35.992Z,94509.56
2019-05-01T21:38:05.048Z,94506.17
2019-05-01T21:40:40.735Z,94503.52
2019-05-01T21:43:04.544Z,94515.42
2019-05-01T21:45:33.176Z,94508.16
2019-05-01T21:48:03.062Z,94515.48
2019-05-01T21:50:33.562Z,94500.35
2019-05-01T21:53:06.714Z,94511.22
2019-05-01T21:55:34.807Z,94513.56
2019-05-01T21:58:05.113Z,94508.47
2019-05-01T22:00:35.804Z,94513.58
2019-05-01T22:03:04.904Z,94519.06
2019-05-01T22:05:34.771Z,94513.98
2019-05-01T22:08:05.031Z,94523.72
2019-05-01T22:10:34.154Z,94524.69
2019-05-01T22:13:03.920Z,94524.67
2019-05-01T22:15:34.507Z,94527.97
2019-05-01T22:18:10.679Z,94531.18
2019-05-01T22:20:43.677Z,94533.89
2019-05-01T22:23:21.967Z,94526.88
2019-05-01T22:25:52.134Z,94537.41
2019-05-01T22:28:22.426Z,94537.48
2019-05-01T22:30:55.832Z,94535.11
2019-05-01T22:33:25.484Z,94534.83
2019-05-01T22:35:54.449Z,94531.70
2019-05-01T22:38:23.528Z,94541.06
2019-05-01T22:41:05.534Z,94535.78
2019-05-01T22:43:25.282Z,94531.60
2019-05-01T22:45:56.453Z,94529.21
2019-05-01T22:48:25.513Z,94535.94
2019-05-01T22:50:55.841Z,94536.66
2019-05-01T22:53:24.791Z,94531.13
2019-05-01T22:55:57.190Z,94533.50
2019-05-01T22:58:24.115Z,94534.06
2019-05-01T23:00:54.422Z,94533.14
2019-05-01T23:03:41.152Z,94532.58
2019-05-01T23:06:11.649Z,94540.66
2019-05-01T23:08:40.625Z,94536.66
2019-05-01T23:11:19.729Z,94535.87
2019-05-01T23:13:40.694Z,94537.67
2019-05-01T23:16:09.688Z,94531.56
2019-05-01T23:18:38.327Z,94526.82
2019-05-01T23:21:09.792Z,94529.85
2019-05-01T23:23:38.681Z,94524.25
2019-05-01T23:26:11.570Z,94527.22
2019-05-01T23:28:40.971Z,94526.94
2019-05-01T23:31:09.651Z,94520.25
2019-05-01T23:33:38.554Z,94521.84
2019-05-01T23:36:08.214Z,94524.52
2019-05-01T23:38:37.749Z,94517.92
2019-05-01T23:41:06.322Z,94518.94
2019-05-01T23:43:35.303Z,94517.79
2019-05-01T23:46:05.907Z,94513.20
2019-05-01T23:48:35.375Z,94508.09
2019-05-01T23:51:04.485Z,94503.83
2019-05-01T23:53:33.392Z,94506.37
2019-05-01T23:56:02.150Z,94505.13
2019-05-01T23:58:31.018Z,94507.09
